Time;durP1;ratioP1;P1;durP2;ratioP2;P2;SDS_P1;SDS_P2;PMS_P1;PMS_P2;Temp;Humidity;BMP_temperature;BMP_pressure;BME280_temperature;BME280_humidity;BME280_pressure;Samples;Min_cycle;Max_cycle;Signal;HPM_P1;HPM_P2
2022/02/05 00:01:08;;;;;;;6.63;3.65;;;;;;;19.27;47.74;100632.59;4969740;28;20438;-46
2022/02/05 00:03:41;;;;;;;7.20;3.03;;;;;;;19.27;47.73;100640.50;4952834;28;20800;-42
2022/02/05 00:06:07;;;;;;;5.28;3.42;;;;;;;19.26;47.76;100641.53;4973038;28;20483;-42
2022/02/05 00:08:53;;;;;;;5.15;3.40;;;;;;;19.27;47.64;100634.41;4985763;28;20038;-43
2022/02/05 00:38:51;;;;;;;4.47;1.90;;;;;;;19.13;48.37;100620.34;4970302;28;20049;-45
2022/02/05 00:41:17;;;;;;;4.78;2.15;;;;;;;19.12;48.25;100621.34;4969114;28;20134;-44
2022/02/05 00:43:51;;;;;;;4.20;2.60;;;;;;;19.11;48.39;100628.44;4973189;28;20474;-42
2022/02/05 00:46:17;;;;;;;5.70;2.67;;;;;;;19.11;48.41;100632.91;4971215;28;20496;-49
2022/02/05 00:48:43;;;;;;;3.35;2.35;;;;;;;19.11;48.32;100632.91;4969901;28;20041;-45
2022/02/05 00:51:14;;;;;;;3.30;1.88;;;;;;;19.10;48.27;100636.56;4968319;28;20026;-45
2022/02/05 00:53:42;;;;;;;2.67;1.77;;;;;;;19.08;48.48;100633.31;4971055;28;20043;-46
2022/02/05 00:56:17;;;;;;;3.50;2.60;;;;;;;19.07;48.28;100637.78;4971797;28;20045;-45
2022/02/05 00:58:43;;;;;;;6.18;2.67;;;;;;;19.07;48.34;100636.94;4974640;28;20430;-49
2022/02/05 01:01:10;;;;;;;4.10;2.90;;;;;;;19.08;48.24;100635.94;4968959;28;20432;-44
2022/02/05 01:03:37;;;;;;;4.20;2.65;;;;;;;19.09;48.28;100640.22;4975408;28;20035;-49
2022/02/05 01:06:04;;;;;;;7.57;3.10;;;;;;;19.09;48.21;100645.50;4982691;28;20089;-46
2022/02/05 01:08:31;;;;;;;4.43;2.22;;;;;;;19.08;48.26;100644.69;4967505;28;20031;-45
2022/02/05 01:10:56;;;;;;;3.90;2.97;;;;;;;19.08;48.21;100649.16;4977127;28;20121;-47
2022/02/05 01:13:22;;;;;;;3.88;2.70;;;;;;;19.07;48.14;100642.25;4976333;28;20153;-47
2022/02/05 01:15:59;;;;;;;8.05;3.08;;;;;;;19.08;48.20;100643.88;4976054;28;20123;-47
2022/02/05 01:18:26;;;;;;;4.78;2.75;;;;;;;19.07;48.10;100642.25;4968824;28;20042;-44
2022/02/05 01:23:42;;;;;;;4.40;2.65;;;;;;;19.07;48.03;100644.88;4980347;28;20035;-47
2022/02/05 01:26:21;;;;;;;4.45;2.88;;;;;;;19.06;48.12;100645.88;4970363;28;20035;-46
2022/02/05 01:28:52;;;;;;;3.35;2.78;;;;;;;19.04;48.14;100640.81;4971689;28;20022;-48
2022/02/05 01:31:22;;;;;;;5.25;2.92;;;;;;;19.04;48.23;100642.63;4967885;28;20061;-46
2022/02/05 01:33:58;;;;;;;4.05;2.60;;;;;;;19.05;48.12;100637.16;4986603;28;20057;-49
2022/02/05 01:39:18;;;;;;;4.50;2.17;;;;;;;19.03;48.21;100636.53;4968666;28;20038;-47
2022/02/05 01:50:23;;;;;;;4.85;2.50;;;;;;;19.00;48.24;100625.53;4977023;28;20049;-49
2022/02/05 02:11:52;;;;;;;3.53;1.50;;;;;;;18.94;48.33;100632.41;5063743;23;22604;-47
2022/02/05 02:17:51;;;;;;;4.30;1.90;;;;;;;18.93;48.21;100625.50;4948600;29;20126;-44
2022/02/05 02:22:41;;;;;;;4.40;2.28;;;;;;;18.92;48.33;100621.22;4948288;29;20126;-48
2022/02/05 02:25:26;;;;;;;3.20;2.22;;;;;;;18.93;48.28;100622.03;4963439;28;20141;-45
2022/02/05 02:28:19;;;;;;;3.13;2.20;;;;;;;18.92;48.31;100628.34;4946908;29;20051;-44
2022/02/05 02:30:52;;;;;;;3.08;1.85;;;;;;;18.90;48.23;100623.28;4947961;29;20279;-44
2022/02/05 02:33:26;;;;;;;3.25;1.77;;;;;;;18.89;48.24;100625.09;4963049;28;20023;-44
2022/02/05 02:35:52;;;;;;;2.53;1.90;;;;;;;18.89;48.18;100624.28;4947076;29;20114;-46
2022/02/05 02:38:22;;;;;;;4.03;1.83;;;;;;;18.89;48.29;100630.38;4948392;29;20170;-44
2022/02/05 02:41:13;;;;;;;3.15;1.65;;;;;;;18.88;48.32;100631.41;4948076;29;20039;-45
2022/02/05 02:43:36;;;;;;;3.47;1.92;;;;;;;18.87;48.33;100632.41;4948128;28;20376;-43
2022/02/05 02:46:02;;;;;;;2.45;1.30;;;;;;;18.87;48.25;100629.75;4947952;29;20161;-48
2022/02/05 02:48:27;;;;;;;2.40;1.13;;;;;;;18.86;48.29;100620.22;4948489;29;20024;-45
2022/02/05 02:56:46;;;;;;;2.28;1.10;;;;;;;18.82;48.68;100637.44;4948465;29;20142;-47
2022/02/05 02:59:26;;;;;;;2.17;1.15;;;;;;;18.80;48.41;100628.09;4946548;29;20051;-45
2022/02/05 03:02:10;;;;;;;2.67;1.30;;;;;;;18.80;48.45;100628.09;4948056;29;20081;-47
2022/02/05 03:04:36;;;;;;;2.35;1.30;;;;;;;18.78;48.63;100630.94;4948531;29;20415;-51
2022/02/05 03:07:02;;;;;;;2.67;1.20;;;;;;;18.78;48.56;100627.47;4948586;29;20032;-43
2022/02/05 03:09:28;;;;;;;2.35;1.13;;;;;;;18.78;48.55;100625.66;4948032;29;20031;-47
2022/02/05 03:11:53;;;;;;;2.38;1.20;;;;;;;18.77;48.63;100626.66;4948150;29;20034;-46
2022/02/05 03:14:19;;;;;;;2.63;1.20;;;;;;;18.77;48.55;100623.19;4948254;29;20565;-50
2022/02/05 03:16:50;;;;;;;2.47;1.15;;;;;;;18.77;48.43;100623.19;4947997;29;20035;-47
2022/02/05 03:19:15;;;;;;;2.53;1.67;;;;;;;18.76;48.50;100630.31;4946682;29;20070;-48
2022/02/05 03:21:43;;;;;;;4.55;1.58;;;;;;;18.78;48.39;100624.81;4948214;29;20114;-50
2022/02/05 03:24:09;;;;;;;2.05;1.17;;;;;;;18.77;48.42;100625.84;4947432;29;20093;-51
2022/02/05 03:26:35;;;;;;;1.67;1.08;;;;;;;18.77;48.48;100621.38;4948336;29;20035;-44
2022/02/05 03:29:05;;;;;;;1.90;1.50;;;;;;;18.77;48.40;100629.28;4948038;29;20038;-51
2022/02/05 03:31:30;;;;;;;2.88;1.40;;;;;;;18.77;48.46;100625.84;4947866;29;20031;-50
2022/02/05 03:33:56;;;;;;;5.03;1.52;;;;;;;18.77;48.42;100631.94;4947999;29;20519;-50
2022/02/05 03:36:22;;;;;;;3.10;1.13;;;;;;;18.77;48.36;100636.41;4947952;29;20027;-49
2022/02/05 03:38:47;;;;;;;2.03;1.27;;;;;;;18.76;48.37;100630.31;4947753;28;20530;-49
2022/02/05 03:41:13;;;;;;;2.45;1.20;;;;;;;18.77;48.39;100631.94;4947567;29;20526;-42
2022/02/05 03:43:38;;;;;;;3.80;2.00;;;;;;;18.77;48.36;100631.13;4947452;29;20034;-49
2022/02/05 03:46:04;;;;;;;2.72;1.52;;;;;;;18.75;48.35;100633.94;4947686;29;20479;-49
2022/02/05 03:48:29;;;;;;;2.63;1.15;;;;;;;18.76;48.32;100643.50;4948055;29;20510;-49
2022/02/05 03:50:55;;;;;;;4.10;1.40;;;;;;;18.76;48.24;100643.50;4947918;29;20027;-44
2022/02/05 03:53:20;;;;;;;1.73;1.13;;;;;;;18.76;48.31;100648.78;4945999;29;20039;-48
2022/02/05 03:55:46;;;;;;;1.77;1.30;;;;;;;18.75;48.25;100649.78;4947709;29;20035;-47
2022/02/05 03:58:13;;;;;;;2.38;1.08;;;;;;;18.74;48.20;100653.44;4950200;28;20118;-46
2022/02/05 04:00:39;;;;;;;3.53;1.38;;;;;;;18.75;48.08;100648.97;4951453;28;20067;-47
2022/02/05 04:03:06;;;;;;;2.58;1.70;;;;;;;18.73;47.98;100646.53;4968933;28;20049;-54
2022/02/05 04:05:31;;;;;;;2.85;1.15;;;;;;;18.74;47.99;100652.63;4969392;28;20113;-47
2022/02/05 04:07:57;;;;;;;3.03;1.30;;;;;;;18.73;47.76;100656.25;4969660;28;20501;-52
2022/02/05 04:10:31;;;;;;;2.97;1.42;;;;;;;18.72;47.79;100666.00;4969269;28;20045;-43
2022/02/05 04:18:46;;;;;;;3.40;1.42;;;;;;;18.66;47.77;100664.13;4872023;29;20610;-50
2022/02/05 04:21:11;;;;;;;2.80;0.90;;;;;;;18.66;47.80;100653.56;4871034;29;20056;-49
2022/02/05 04:23:38;;;;;;;1.88;1.10;;;;;;;18.66;47.77;100655.41;4870211;29;20041;-45
2022/02/05 04:26:05;;;;;;;1.85;0.90;;;;;;;18.66;47.65;100663.31;4868553;29;20037;-46
2022/02/05 04:28:31;;;;;;;2.67;0.80;;;;;;;18.64;47.67;100650.31;4871272;29;20052;-49
2022/02/05 04:30:56;;;;;;;1.63;0.98;;;;;;;18.65;47.87;100659.88;4869686;29;20081;-45
2022/02/05 04:33:22;;;;;;;2.53;1.23;;;;;;;18.66;47.80;100658.03;4872183;29;20051;-46
2022/02/05 04:35:47;;;;;;;3.05;1.13;;;;;;;18.65;48.01;100665.13;4871417;29;20489;-49
2022/02/05 04:38:13;;;;;;;5.32;1.30;;;;;;;18.65;47.92;100661.69;4870941;29;20040;-48
2022/02/05 04:40:54;;;;;;;2.50;0.90;;;;;;;18.65;47.92;100665.13;4855164;29;20489;-44
2022/02/05 05:20:03;;;;;;;1.98;0.70;;;;;;;18.50;47.81;100688.94;4889361;29;20071;-46
2022/02/05 05:22:29;;;;;;;1.88;0.98;;;;;;;18.49;47.88;100689.94;4889642;29;20605;-46
2022/02/05 05:24:54;;;;;;;1.55;0.65;;;;;;;18.48;47.96;100688.31;4891857;29;20059;-49
2022/02/05 05:27:20;;;;;;;1.83;0.70;;;;;;;18.47;47.94;100691.13;4889469;29;20119;-48
2022/02/05 05:29:45;;;;;;;2.00;0.70;;;;;;;18.46;48.10;100692.16;4902287;28;20051;-52
2022/02/05 05:32:11;;;;;;;1.58;0.70;;;;;;;18.45;48.18;100693.16;4967168;28;20035;-50
2022/02/05 05:34:36;;;;;;;2.42;0.73;;;;;;;18.45;48.04;100695.78;4968771;28;20490;-50
2022/02/05 05:37:03;;;;;;;1.65;0.80;;;;;;;18.43;47.98;100698.63;4967595;28;20038;-54
2022/02/05 05:39:32;;;;;;;3.95;1.00;;;;;;;18.44;47.70;100705.53;4966283;28;20041;-50
2022/02/05 05:41:57;;;;;;;3.70;0.80;;;;;;;18.46;47.73;100702.69;4966923;28;20034;-49
2022/02/05 05:46:52;;;;;;;2.20;0.77;;;;;;;18.46;47.87;100711.44;4966326;28;20046;-48
2022/02/05 05:49:22;;;;;;;1.90;0.70;;;;;;;18.47;47.79;100714.88;4968375;28;20410;-44
2022/02/05 05:51:48;;;;;;;2.30;0.90;;;;;;;18.46;47.80;100718.53;4967338;28;20035;-48
2022/02/05 05:54:14;;;;;;;1.85;0.60;;;;;;;18.47;47.84;100720.16;4968108;28;20057;-49
2022/02/05 05:56:42;;;;;;;2.58;0.98;;;;;;;18.48;47.82;100729.69;4964915;28;20034;-47
2022/02/05 05:59:08;;;;;;;1.98;0.60;;;;;;;18.47;47.78;100731.53;4966777;28;20030;-51
2022/02/05 06:01:36;;;;;;;1.73;0.75;;;;;;;18.47;47.76;100733.34;4963053;28;20031;-51
2022/02/05 06:04:01;;;;;;;1.30;0.60;;;;;;;18.47;47.80;100725.44;4966873;28;20447;-46
2022/02/05 06:06:27;;;;;;;2.30;0.60;;;;;;;18.47;47.68;100728.88;4968194;28;20042;-50
2022/02/05 06:08:52;;;;;;;1.33;0.50;;;;;;;18.47;47.95;100725.44;4967533;28;20034;-43
2022/02/05 06:11:18;;;;;;;1.63;0.60;;;;;;;18.46;47.82;100735.16;4966178;28;20031;-50
2022/02/05 06:13:43;;;;;;;1.20;0.68;;;;;;;18.46;47.85;100734.34;4966879;28;20078;-45
2022/02/05 06:16:13;;;;;;;3.05;0.90;;;;;;;18.47;47.75;100741.25;4966398;28;20158;-46
2022/02/05 06:18:39;;;;;;;2.78;0.70;;;;;;;18.45;47.83;100738.00;4965553;28;20042;-45
2022/02/05 06:21:05;;;;;;;2.22;0.75;;;;;;;18.45;47.91;100741.44;4965965;28;20030;-54
2022/02/05 06:23:30;;;;;;;2.55;0.70;;;;;;;18.45;47.79;100740.63;4966873;28;20026;-50
2022/02/05 06:25:56;;;;;;;1.33;0.70;;;;;;;18.44;47.95;100739.81;4966033;28;20085;-51
2022/02/05 06:28:21;;;;;;;1.08;0.63;;;;;;;18.44;47.96;100741.63;4967779;28;20101;-50
2022/02/05 06:30:47;;;;;;;1.30;0.70;;;;;;;18.43;48.02;100746.09;4965471;28;20054;-50
2022/02/05 06:33:13;;;;;;;1.60;0.50;;;;;;;18.42;47.95;100744.50;4965018;28;20027;-49
2022/02/05 06:35:39;;;;;;;2.45;0.60;;;;;;;18.42;48.07;100748.94;4967580;28;20386;-48
2022/02/05 06:38:04;;;;;;;1.48;0.60;;;;;;;18.40;48.08;100751.78;4962111;28;20031;-45
2022/02/05 06:40:32;;;;;;;2.42;0.80;;;;;;;18.40;48.15;100754.41;4963465;28;20055;-47
2022/02/05 06:42:57;;;;;;;1.95;0.77;;;;;;;18.36;48.11;100754.97;4949766;28;20749;-46
2022/02/05 06:45:23;;;;;;;1.27;0.60;;;;;;;18.35;47.96;100762.06;4964295;28;20050;-50
2022/02/05 06:47:48;;;;;;;2.17;0.57;;;;;;;18.36;48.16;100770.81;4966264;28;20817;-48
2022/02/05 06:50:14;;;;;;;1.92;0.50;;;;;;;18.35;48.03;100763.91;4967646;28;20462;-47
2022/02/05 06:52:41;;;;;;;2.40;0.98;;;;;;;18.34;47.78;100763.09;4965999;28;20038;-48
2022/02/05 06:55:10;;;;;;;3.88;1.10;;;;;;;18.33;47.75;100763.25;4949352;28;20117;-50
2022/02/05 06:57:36;;;;;;;2.05;0.80;;;;;;;18.33;47.62;100779.91;4963078;28;20042;-49
2022/02/05 07:00:04;;;;;;;1.48;0.60;;;;;;;18.34;47.52;100778.09;4967192;28;20746;-51
2022/02/05 07:02:30;;;;;;;1.90;0.70;;;;;;;18.33;47.61;100777.28;4968124;28;20027;-46
2022/02/05 07:04:55;;;;;;;1.42;0.47;;;;;;;18.34;47.54;100780.72;4968313;28;20081;-49
2022/02/05 07:07:21;;;;;;;1.55;0.70;;;;;;;18.34;47.56;100780.72;4962365;28;20219;-46
2022/02/05 07:09:46;;;;;;;1.70;0.60;;;;;;;18.32;47.57;100780.09;4968103;28;20030;-47
2022/02/05 07:12:12;;;;;;;2.75;0.57;;;;;;;18.33;47.58;100777.28;4968128;28;20043;-48
2022/02/05 07:15:01;;;;;;;1.27;0.50;;;;;;;18.34;47.61;100781.53;4950367;28;20121;-47
2022/02/05 07:17:48;;;;;;;3.10;0.57;;;;;;;18.35;47.75;100785.00;4967704;28;20039;-49
2022/02/05 07:20:38;;;;;;;2.50;0.60;;;;;;;18.34;47.85;100778.91;4950011;28;20758;-49
2022/02/05 07:31:00;;;;;;;1.30;0.43;;;;;;;18.45;47.96;100788.94;4966724;28;20038;-45
2022/02/05 07:33:25;;;;;;;1.23;0.40;;;;;;;18.49;47.99;100792.03;4962267;28;20066;-51
2022/02/05 07:35:51;;;;;;;3.78;0.60;;;;;;;18.53;48.38;100782.72;4966523;28;20138;-44
2022/02/05 07:38:16;;;;;;;2.00;0.50;;;;;;;18.58;48.71;100796.16;4969325;28;20423;-49
2022/02/05 07:40:42;;;;;;;11.98;0.90;;;;;;;18.60;48.83;100799.47;4970704;28;20031;-46
2022/02/05 07:43:08;;;;;;;1.35;0.38;;;;;;;18.65;49.03;100786.53;4963403;28;20035;-46
2022/02/05 07:45:33;;;;;;;1.50;0.57;;;;;;;18.68;49.14;100791.44;4971248;28;20034;-43
2022/02/05 07:47:59;;;;;;;1.70;0.90;;;;;;;18.74;49.15;100789.84;4969516;28;20042;-49
2022/02/05 07:50:24;;;;;;;2.63;0.50;;;;;;;18.78;49.25;100796.41;4968394;28;20122;-47
2022/02/05 07:52:50;;;;;;;2.55;0.63;;;;;;;18.82;49.18;100795.81;4970786;28;20138;-49
2022/02/05 07:55:15;;;;;;;4.15;0.50;;;;;;;18.86;49.21;100802.38;4970899;28;20038;-45
2022/02/05 07:57:41;;;;;;;1.20;0.43;;;;;;;18.92;49.21;100802.56;4969026;28;20118;-49
2022/02/05 08:00:07;;;;;;;2.88;0.57;;;;;;;18.96;49.17;100806.47;4970579;28;20115;-46
2022/02/05 08:02:32;;;;;;;1.50;0.57;;;;;;;18.99;49.14;100806.09;4968058;28;20042;-44
2022/02/05 08:04:58;;;;;;;1.80;0.82;;;;;;;19.04;49.10;100804.50;4970675;28;20505;-45
2022/02/05 08:07:24;;;;;;;2.92;0.70;;;;;;;19.08;49.13;100802.31;4966296;28;20031;-47
2022/02/05 08:09:58;;;;;;;1.75;0.50;;;;;;;19.14;49.14;100807.66;4968453;28;20636;-44
2022/02/05 08:12:25;;;;;;;1.20;0.40;;;;;;;19.18;48.96;100808.09;4941754;23;20111;-42
2022/02/05 08:14:52;;;;;;;1.15;0.57;;;;;;;19.22;48.81;100804.06;4910736;29;20128;-49
2022/02/05 08:17:25;;;;;;;1.70;0.50;;;;;;;19.27;48.85;100800.84;4904423;29;20493;-50
2022/02/05 08:19:50;;;;;;;1.42;0.45;;;;;;;19.30;48.75;100798.63;4927450;29;20543;-43
2022/02/05 08:22:17;;;;;;;2.08;0.50;;;;;;;19.34;48.67;100802.50;4913651;29;20028;-46
2022/02/05 08:24:42;;;;;;;6.75;0.60;;;;;;;19.40;49.19;100811.47;4911700;29;20395;-47
2022/02/05 08:27:08;;;;;;;2.33;0.40;;;;;;;19.43;49.63;100803.97;4898476;29;20051;-45
2022/02/05 08:29:37;;;;;;;2.42;0.50;;;;;;;19.46;49.65;100806.22;4918019;29;20111;-45
2022/02/05 08:32:03;;;;;;;4.78;0.60;;;;;;;19.50;49.82;100810.09;4908838;29;20070;-48
2022/02/05 08:34:28;;;;;;;3.25;1.10;;;;;;;19.60;50.01;100812.44;4911191;29;20032;-45
2022/02/05 08:36:57;;;;;;;4.95;0.90;;;;;;;19.66;49.98;100816.13;4913071;29;20617;-43
2022/02/05 08:39:23;;;;;;;5.15;1.15;;;;;;;19.65;49.63;100825.88;4912347;29;20028;-46
2022/02/05 08:41:49;;;;;;;6.22;1.58;;;;;;;19.65;49.74;100827.72;4912432;29;20131;-42
2022/02/05 08:44:14;;;;;;;8.68;1.65;;;;;;;19.66;50.05;100822.22;4905181;29;20063;-45
2022/02/05 08:46:41;;;;;;;7.78;0.77;;;;;;;19.67;49.80;100828.34;4912544;29;20043;-46
2022/02/05 08:49:07;;;;;;;6.18;1.58;;;;;;;19.71;49.93;100829.59;4910077;29;20487;-49
2022/02/05 08:51:33;;;;;;;2.92;1.00;;;;;;;19.71;49.78;100829.59;4912443;29;20035;-47
2022/02/05 08:54:00;;;;;;;4.70;0.98;;;;;;;19.68;49.88;100829.97;4912581;29;20396;-46
2022/02/05 08:56:27;;;;;;;9.63;1.00;;;;;;;19.67;49.91;100833.63;4912653;29;20031;-44
2022/02/05 08:58:54;;;;;;;2.83;1.00;;;;;;;19.66;49.73;100834.63;4911837;29;20032;-40
2022/02/05 09:01:29;;;;;;;4.78;0.70;;;;;;;19.66;49.77;100837.28;4912194;29;20183;-44
2022/02/05 09:06:31;;;;;;;4.65;0.80;;;;;;;19.66;49.72;100837.28;4910191;29;20048;-43
2022/02/05 09:09:21;;;;;;;3.22;0.80;;;;;;;19.67;49.65;100844.19;4905597;29;20032;-44
2022/02/05 09:14:41;;;;;;;4.68;0.70;;;;;;;19.68;49.39;100840.53;4903477;29;20420;-45
2022/02/05 09:17:07;;;;;;;2.47;0.70;;;;;;;19.73;49.40;100843.41;4907341;29;20130;-41
2022/02/05 09:19:35;;;;;;;3.83;0.80;;;;;;;19.76;49.40;100843.03;4912076;29;20039;-43
2022/02/05 09:22:01;;;;;;;2.70;1.00;;;;;;;19.77;49.23;100849.94;4910585;29;20028;-41
2022/02/05 09:24:27;;;;;;;2.20;0.93;;;;;;;19.79;49.13;100850.56;4910255;29;20091;-44
2022/02/05 09:27:01;;;;;;;2.72;0.80;;;;;;;19.78;49.06;100847.13;4906676;29;20040;-42
2022/02/05 09:29:27;;;;;;;1.92;0.60;;;;;;;19.78;49.14;100851.59;4909302;29;20040;-44
2022/02/05 09:31:53;;;;;;;4.72;0.70;;;;;;;19.79;49.24;100853.22;4913389;29;20536;-42
2022/02/05 09:34:20;;;;;;;4.82;0.73;;;;;;;19.79;49.31;100859.31;4915754;29;21454;-49
2022/02/05 09:36:46;;;;;;;4.00;0.50;;;;;;;19.79;49.59;100859.31;4895013;29;20036;-47
2022/02/05 09:39:13;;;;;;;6.00;0.75;;;;;;;19.79;49.79;100867.25;4919841;29;20028;-48
2022/02/05 09:41:40;;;;;;;5.70;1.35;;;;;;;19.79;49.39;100872.53;4913323;29;20395;-44
2022/02/05 09:44:07;;;;;;;2.47;1.15;;;;;;;19.78;48.99;100870.09;4911817;29;20114;-47
2022/02/05 09:46:33;;;;;;;6.35;1.52;;;;;;;19.77;48.68;100861.34;4910145;29;20396;-42
2022/02/05 09:49:01;;;;;;;3.30;0.95;;;;;;;19.74;48.39;100872.31;4910121;29;20167;-46
2022/02/05 09:51:33;;;;;;;8.02;1.65;;;;;;;19.69;47.65;100873.91;4893634;29;20107;-39
2022/02/05 09:54:01;;;;;;;5.90;1.27;;;;;;;19.66;47.21;100874.28;4910052;29;20040;-43
2022/02/05 09:56:28;;;;;;;7.15;1.50;;;;;;;19.65;47.07;100878.75;4912352;29;20135;-42
2022/02/05 09:58:55;;;;;;;5.30;2.03;;;;;;;19.66;46.82;100877.75;4909552;29;20115;-49
2022/02/05 10:01:27;;;;;;;7.35;1.83;;;;;;;19.67;46.78;100870.63;4910508;29;20028;-46
2022/02/05 10:03:55;;;;;;;5.55;1.60;;;;;;;19.67;47.14;100870.63;4909908;29;20445;-44
2022/02/05 10:06:33;;;;;;;6.72;1.92;;;;;;;19.66;46.94;100872.47;4925860;29;20032;-48
2022/02/05 10:09:09;;;;;;;6.60;1.70;;;;;;;19.66;46.98;100875.09;4895620;29;20064;-41
2022/02/05 10:11:54;;;;;;;4.13;1.00;;;;;;;19.64;46.81;100876.31;4914129;29;20116;-41
2022/02/05 10:14:22;;;;;;;5.93;1.53;;;;;;;19.65;47.00;100891.16;4906414;29;20143;-51
2022/02/05 10:16:58;;;;;;;4.55;0.80;;;;;;;19.62;46.85;100884.44;4894008;29;20277;-52
2022/02/05 10:19:24;;;;;;;;;;;;;;;19.53;46.72;100875.81;4893222;29;20412;-51
2022/02/05 10:22:05;;;;;;;4.68;1.00;;;;;;;19.55;47.07;100878.28;4892792;29;20476;-44
2022/02/05 10:24:31;;;;;;;6.90;1.17;;;;;;;19.59;46.94;100881.34;4892775;29;20063;-49
2022/02/05 10:26:57;;;;;;;5.10;1.30;;;;;;;19.60;46.83;100875.88;4905298;29;20480;-51
2022/02/05 10:29:23;;;;;;;4.53;0.88;;;;;;;19.62;46.85;100880.97;4911544;29;20036;-51
2022/02/05 10:32:07;;;;;;;6.18;1.00;;;;;;;19.61;46.86;100879.34;4911868;29;20626;-54
2022/02/05 10:35:02;;;;;;;3.30;1.08;;;;;;;19.62;46.74;100889.72;4911558;29;20067;-50
2022/02/05 10:37:33;;;;;;;3.17;0.82;;;;;;;19.64;46.74;100884.22;4894039;29;20058;-43
2022/02/05 10:40:09;;;;;;;5.30;1.10;;;;;;;19.64;46.82;100892.16;4894582;29;20048;-41
2022/02/05 10:43:01;;;;;;;4.57;1.00;;;;;;;19.66;46.72;100888.31;4909542;29;20044;-53
2022/02/05 10:45:40;;;;;;;2.33;0.88;;;;;;;19.63;46.61;100879.97;4894177;29;20036;-51
2022/02/05 10:48:06;;;;;;;5.07;1.20;;;;;;;19.65;46.59;100883.22;4893769;29;20032;-44
2022/02/05 10:50:34;;;;;;;3.50;1.02;;;;;;;19.66;46.83;100874.28;4911426;29;20036;-47
2022/02/05 10:53:20;;;;;;;3.53;1.13;;;;;;;19.64;46.77;100879.75;4910716;29;20035;-54
2022/02/05 11:07:09;;;;;;;3.67;0.95;;;;;;;19.55;47.03;100873.81;4894933;29;20104;-44
2022/02/05 11:09:37;;;;;;;5.13;0.95;;;;;;;19.55;46.83;100878.28;4889118;29;20036;-50
2022/02/05 11:20:09;;;;;;;3.85;1.15;;;;;;;19.49;46.89;100874.53;4906384;29;20080;-41
2022/02/05 11:23:00;;;;;;;7.25;1.30;;;;;;;19.45;46.78;100877.75;4904534;29;20036;-43
2022/02/05 11:25:31;;;;;;;4.28;1.00;;;;;;;19.45;47.08;100880.41;4904536;29;20036;-43
2022/02/05 11:27:57;;;;;;;8.23;1.20;;;;;;;19.45;47.17;100877.75;4913937;29;20059;-44
2022/02/05 11:30:22;;;;;;;6.32;0.90;;;;;;;19.47;47.28;100881.03;4910213;29;20474;-47
2022/02/05 11:32:50;;;;;;;2.30;0.90;;;;;;;19.47;47.16;100876.56;4913656;29;20048;-46
2022/02/05 11:35:29;;;;;;;1.92;0.85;;;;;;;19.47;47.33;100873.91;4915170;29;20068;-47
2022/02/05 11:37:57;;;;;;;5.45;0.98;;;;;;;19.47;47.36;100871.28;4926071;29;20046;-49
2022/02/05 11:40:41;;;;;;;5.43;1.08;;;;;;;19.45;47.41;100868.00;4915880;29;20071;-50
2022/02/05 11:43:20;;;;;;;3.70;0.90;;;;;;;19.45;47.47;100870.66;4914370;29;20047;-48
2022/02/05 11:46:04;;;;;;;5.85;0.98;;;;;;;19.45;47.53;100875.13;4915224;29;20040;-44
2022/02/05 11:48:38;;;;;;;4.63;0.90;;;;;;;19.45;47.53;100873.28;4910620;29;20044;-54
2022/02/05 11:51:21;;;;;;;5.82;0.90;;;;;;;19.46;47.57;100868.81;4896933;29;20107;-48
2022/02/05 11:53:55;;;;;;;5.57;0.70;;;;;;;19.43;47.53;100861.28;4930890;29;20035;-48
2022/02/05 11:56:22;;;;;;;2.15;0.80;;;;;;;19.44;47.51;100858.44;4915818;29;20036;-48
2022/02/05 11:58:58;;;;;;;3.78;0.88;;;;;;;19.40;47.61;100843.97;4917804;29;20094;-42
2022/02/05 12:01:38;;;;;;;5.35;0.60;;;;;;;19.39;47.57;100846.81;4899337;29;20038;-48
2022/02/05 12:04:19;;;;;;;1.58;0.80;;;;;;;19.38;47.57;100845.19;4925559;29;20054;-42
2022/02/05 12:06:53;;;;;;;2.65;0.73;;;;;;;19.37;47.66;100857.59;4930516;29;20025;-48
2022/02/05 12:09:40;;;;;;;2.72;0.88;;;;;;;19.35;47.65;100861.44;4922556;29;20068;-51
2022/02/05 12:12:24;;;;;;;2.92;0.40;;;;;;;19.33;47.68;100861.63;4921833;29;20500;-47
2022/02/05 12:15:08;;;;;;;2.28;0.50;;;;;;;19.33;47.76;100863.47;4920397;29;20082;-47
2022/02/05 12:20:51;;;;;;;3.00;0.60;;;;;;;19.28;47.77;100866.69;4916796;29;20079;-45
2022/02/05 12:25:57;;;;;;;2.38;0.73;;;;;;;19.29;47.89;100856.94;4920313;29;20135;-45
2022/02/05 12:28:29;;;;;;;3.25;0.77;;;;;;;19.29;47.97;100855.09;4920536;29;20062;-45
2022/02/05 12:30:56;;;;;;;6.22;0.82;;;;;;;19.28;48.12;100848.19;4913463;29;20032;-45
2022/02/05 12:33:21;;;;;;;4.90;0.73;;;;;;;19.27;48.05;100849.19;4911243;29;20115;-49
2022/02/05 12:35:52;;;;;;;3.78;0.60;;;;;;;19.25;48.16;100851.22;4912479;29;20168;-45
2022/02/05 12:38:19;;;;;;;3.78;0.68;;;;;;;19.26;48.11;100846.75;4931181;29;20126;-44
2022/02/05 12:40:47;;;;;;;4.47;0.85;;;;;;;19.27;48.09;100849.19;4926531;29;20032;-51
2022/02/05 12:43:14;;;;;;;3.33;0.80;;;;;;;19.28;48.08;100856.13;4918100;29;20439;-46
2022/02/05 12:45:55;;;;;;;1.60;0.55;;;;;;;19.27;48.26;100857.13;4904220;29;20048;-46
2022/02/05 12:48:24;;;;;;;4.45;1.05;;;;;;;19.28;48.17;100853.47;4919169;29;20122;-46
2022/02/05 12:50:50;;;;;;;2.63;1.02;;;;;;;19.36;50.16;100853.34;4911943;29;20063;-43
2022/02/05 12:53:17;;;;;;;4.40;1.02;;;;;;;19.58;51.43;100848.00;4926303;29;20055;-49
2022/02/05 12:55:47;;;;;;;3.45;1.23;;;;;;;19.82;52.36;100856.28;4913812;29;20108;-42
2022/02/05 12:58:18;;;;;;;5.40;1.80;;;;;;;20.00;53.73;100860.22;4919453;29;20051;-51
2022/02/05 13:00:44;;;;;;;6.25;1.60;;;;;;;20.15;56.25;100851.13;4929679;29;20078;-41
2022/02/05 13:03:26;;;;;;;7.95;2.13;;;;;;;20.12;59.85;100848.06;4919544;29;20139;-40
2022/02/05 13:05:52;;;;;;;7.82;1.48;;;;;;;20.06;58.37;100848.84;4911323;29;20035;-43
2022/02/05 13:08:18;;;;;;;421.65;76.18;;;;;;;20.13;59.15;100863.75;4923579;29;20040;-40
2022/02/05 13:10:45;;;;;;;65.78;13.73;;;;;;;20.19;59.50;100857.66;4926594;29;20459;-45
2022/02/05 13:13:10;;;;;;;78.13;16.52;;;;;;;20.27;62.02;100861.16;4912095;29;20048;-41
2022/02/05 13:15:36;;;;;;;55.35;12.70;;;;;;;20.40;61.80;100856.75;4925362;29;20039;-41
2022/02/05 13:28:36;;;;;;;23.75;5.38;;;;;;;20.80;63.40;100864.75;4893349;29;20048;-43
2022/02/05 13:39:24;;;;;;;9.98;3.72;;;;;;;20.17;57.54;100887.97;4914979;29;20044;-42
2022/02/05 13:42:00;;;;;;;12.18;3.00;;;;;;;20.09;56.71;100886.31;4910095;29;20040;-46
2022/02/05 13:47:37;;;;;;;14.20;2.75;;;;;;;19.95;55.40;100889.91;4919134;29;20047;-42
2022/02/05 13:50:12;;;;;;;8.40;2.05;;;;;;;19.92;54.68;100892.13;4923878;29;20091;-55
2022/02/05 13:52:53;;;;;;;11.90;2.58;;;;;;;19.87;54.52;100892.69;4915971;29;20035;-39
2022/02/05 13:55:20;;;;;;;9.82;2.20;;;;;;;19.87;55.58;100903.28;4924883;29;20055;-50
2022/02/05 13:57:54;;;;;;;13.10;2.55;;;;;;;19.85;55.67;100905.28;4910856;29;20031;-44
2022/02/05 14:00:20;;;;;;;9.15;2.60;;;;;;;19.83;55.29;100907.34;4909237;29;20047;-47
2022/02/05 14:02:59;;;;;;;7.20;2.05;;;;;;;19.78;53.64;100902.63;4917331;29;20039;-40
2022/02/05 14:05:25;;;;;;;10.98;1.98;;;;;;;19.76;52.75;100904.66;4918661;29;20039;-38
2022/02/05 14:07:51;;;;;;;5.90;1.48;;;;;;;19.73;52.41;100910.31;4900608;29;20035;-44
2022/02/05 14:10:19;;;;;;;7.18;1.40;;;;;;;19.69;51.62;100908.25;4908395;29;20032;-41
2022/02/05 14:12:52;;;;;;;5.10;1.83;;;;;;;19.63;50.44;100912.50;4905332;23;20105;-45
2022/02/05 14:15:18;;;;;;;8.00;2.42;;;;;;;19.69;50.65;100916.19;4961926;28;20125;-39
2022/02/05 14:17:46;;;;;;;6.25;2.05;;;;;;;19.74;50.45;100919.06;4942650;28;20034;-41
2022/02/05 14:20:13;;;;;;;10.93;2.05;;;;;;;19.79;50.45;100916.66;4965034;28;20039;-51
2022/02/05 14:22:43;;;;;;;6.72;2.03;;;;;;;19.84;51.24;100914.28;4967854;28;20647;-41
2022/02/05 14:25:17;;;;;;;5.18;2.05;;;;;;;19.87;51.61;100924.44;4966708;28;20452;-63
2022/02/05 14:28:09;;;;;;;6.95;1.73;;;;;;;19.89;51.67;100927.69;4968080;28;20043;-42
2022/02/05 14:30:36;;;;;;;12.52;2.60;;;;;;;20.02;51.13;100932.25;4947777;28;20042;-41
2022/02/05 14:33:06;;;;;;;6.40;2.38;;;;;;;20.01;50.30;100926.16;4945132;28;20058;-42